createdAt,value
2022-10-06T00:00:46.710Z,19.00
2022-10-06T00:03:13.626Z,21.25
2022-10-06T00:05:40.467Z,21.00
2022-10-06T00:08:10.259Z,21.00
2022-10-06T00:10:37.435Z,20.00
2022-10-06T00:13:04.238Z,19.00
2022-10-06T00:15:32.683Z,20.00
2022-10-06T00:18:26.811Z,19.50
2022-10-06T00:20:55.506Z,19.00
2022-10-06T00:23:22.666Z,19.00
2022-10-06T00:25:51.852Z,18.00
2022-10-06T00:28:18.725Z,18.00
2022-10-06T00:30:45.837Z,18.00
2022-10-06T00:33:17.288Z,19.00
2022-10-06T00:35:46.677Z,18.00
2022-10-06T00:38:15.986Z,20.00
2022-10-06T00:40:45.152Z,19.00
2022-10-06T00:43:40.398Z,19.00
2022-10-06T00:46:23.581Z,19.00
2022-10-06T00:48:58.567Z,20.00
2022-10-06T00:51:28.784Z,19.00
2022-10-06T00:53:55.691Z,19.00
2022-10-06T00:56:22.712Z,18.00
2022-10-06T00:58:50.387Z,19.75
2022-10-06T01:01:17.528Z,20.00
2022-10-06T01:04:17.458Z,20.00
2022-10-06T01:06:54.636Z,20.00
2022-10-06T01:09:23.929Z,19.00
2022-10-06T01:11:53.825Z,19.00
2022-10-06T01:14:22.725Z,21.00
2022-10-06T01:17:11.774Z,22.00
2022-10-06T01:20:09.933Z,21.00
2022-10-06T01:22:41.821Z,21.00
2022-10-06T01:25:12.270Z,21.00
2022-10-06T01:27:42.542Z,21.00
2022-10-06T01:30:16.237Z,21.00
2022-10-06T01:32:43.479Z,19.00
2022-10-06T01:35:10.556Z,19.00
2022-10-06T01:37:38.933Z,20.00
2022-10-06T01:40:06.551Z,20.50
2022-10-06T01:42:35.748Z,22.00
2022-10-06T01:45:03.675Z,20.00
2022-10-06T01:47:30.555Z,21.00
2022-10-06T01:49:57.321Z,19.75
2022-10-06T01:52:24.161Z,18.00
2022-10-06T01:54:50.975Z,20.75
2022-10-06T01:57:17.881Z,21.00
2022-10-06T01:59:44.713Z,21.00
2022-10-06T02:02:11.577Z,20.00
2022-10-06T02:04:38.422Z,21.00
2022-10-06T02:07:05.824Z,20.50
2022-10-06T02:09:41.116Z,19.50
2022-10-06T02:12:08.863Z,20.00
2022-10-06T02:14:39.290Z,21.00
2022-10-06T02:17:06.139Z,20.00
2022-10-06T02:19:32.980Z,19.00
2022-10-06T02:50:34.186Z,19.00
2022-10-06T02:53:01.937Z,18.00
2022-10-06T02:55:29.279Z,19.00
2022-10-06T02:57:56.124Z,20.00
2022-10-06T03:00:23.050Z,20.00
2022-10-06T03:02:50.178Z,20.00
2022-10-06T03:05:17.124Z,19.00
2022-10-06T03:07:44.131Z,21.00
2022-10-06T03:10:10.948Z,21.00
2022-10-06T03:12:38.199Z,20.00
2022-10-06T03:15:13.016Z,20.00
2022-10-06T03:17:40.417Z,19.00
2022-10-06T03:20:08.051Z,18.00
2022-10-06T03:22:35.191Z,18.00
2022-10-06T03:25:02.361Z,20.00
2022-10-06T03:27:30.012Z,20.00
2022-10-06T03:30:01.449Z,20.00
2022-10-06T03:32:31.516Z,21.50
2022-10-06T03:34:58.394Z,21.00
2022-10-06T03:37:25.271Z,20.00
2022-10-06T03:39:52.190Z,19.00
2022-10-06T03:42:20.092Z,19.00
2022-10-06T03:44:47.303Z,20.00
2022-10-06T03:47:17.175Z,19.00
2022-10-06T03:49:45.075Z,20.00
2022-10-06T03:52:12.948Z,20.50
2022-10-06T03:54:39.951Z,21.00
2022-10-06T03:57:06.753Z,20.00
2022-10-06T03:59:33.566Z,19.00
2022-10-06T04:02:01.686Z,20.00
2022-10-06T04:04:34.315Z,19.00
2022-10-06T04:07:05.824Z,19.00
2022-10-06T04:09:32.713Z,19.50
2022-10-06T04:12:00.721Z,20.00
2022-10-06T04:14:29.131Z,19.00
2022-10-06T04:16:56.827Z,20.00
2022-10-06T04:19:43.935Z,19.00
2022-10-06T04:22:10.868Z,21.00
2022-10-06T04:24:37.672Z,19.50
2022-10-06T04:27:04.879Z,19.00
2022-10-06T04:29:31.728Z,20.00
2022-10-06T04:31:58.654Z,19.00
2022-10-06T04:34:47.604Z,19.00
2022-10-06T04:37:15.367Z,18.00
2022-10-06T04:40:03.821Z,19.00
2022-10-06T04:42:35.234Z,19.00
2022-10-06T04:45:05.968Z,19.00
2022-10-06T04:47:33.675Z,20.50
2022-10-06T04:50:00.707Z,20.00
2022-10-06T04:52:27.653Z,20.75
2022-10-06T04:54:54.479Z,21.00
2022-10-06T04:57:21.630Z,20.00
2022-10-06T04:59:49.153Z,20.00
2022-10-06T05:02:17.286Z,19.00
2022-10-06T05:04:45.638Z,19.00
2022-10-06T05:07:14.591Z,20.00
2022-10-06T05:09:41.899Z,20.00
2022-10-06T05:12:09.544Z,20.00
2022-10-06T05:14:36.363Z,19.00
2022-10-06T05:17:04.052Z,20.00
2022-10-06T05:19:31.506Z,19.00
2022-10-06T05:21:58.324Z,19.00
2022-10-06T05:24:29.078Z,19.50
2022-10-06T05:27:00.848Z,20.00
2022-10-06T05:30:04.666Z,20.00
2022-10-06T05:32:35.933Z,19.00
2022-10-06T05:35:04.673Z,19.00
2022-10-06T05:37:31.688Z,19.00
2022-10-06T05:39:58.716Z,20.00
2022-10-06T05:42:29.563Z,22.00
2022-10-06T05:44:57.783Z,22.00
2022-10-06T05:47:24.908Z,21.00
2022-10-06T05:49:51.936Z,21.00
2022-10-06T05:52:18.781Z,20.50
2022-10-06T05:54:45.790Z,20.75
2022-10-06T05:57:12.763Z,21.00
2022-10-06T05:59:39.771Z,20.50
2022-10-06T06:02:09.167Z,21.00
2022-10-06T06:04:42.382Z,20.00
2022-10-06T06:07:10.324Z,20.00
2022-10-06T06:09:39.005Z,20.00
2022-10-06T06:12:08.595Z,22.00
2022-10-06T06:14:49.876Z,22.00
2022-10-06T06:17:21.229Z,21.00
2022-10-06T06:19:48.114Z,21.00
2022-10-06T06:22:15.953Z,21.00
2022-10-06T06:24:45.058Z,20.00
2022-10-06T06:27:12.324Z,20.00
2022-10-06T06:29:40.247Z,21.00
2022-10-06T06:32:10.030Z,21.75
2022-10-06T06:34:37.332Z,21.00
2022-10-06T06:37:08.462Z,20.00
2022-10-06T06:39:39.145Z,21.00
2022-10-06T06:42:06.212Z,22.00
2022-10-06T06:44:41.741Z,21.00
2022-10-06T06:47:17.202Z,21.00
2022-10-06T06:49:44.217Z,21.00
2022-10-06T06:52:11.879Z,21.00
2022-10-06T06:54:40.730Z,20.00
2022-10-06T06:57:12.020Z,22.50
2022-10-06T06:59:42.361Z,20.00
2022-10-06T07:02:11.224Z,20.00
2022-10-06T07:04:40.599Z,21.00
2022-10-06T07:07:11.409Z,21.00
2022-10-06T07:09:38.599Z,20.00
2022-10-06T07:12:10.331Z,20.50
2022-10-06T07:14:39.134Z,21.00
2022-10-06T07:17:06.334Z,21.00
2022-10-06T07:19:34.131Z,21.50
2022-10-06T07:22:15.202Z,22.00
2022-10-06T07:24:45.614Z,21.00
2022-10-06T07:27:15.145Z,21.00
2022-10-06T07:29:42.161Z,22.00
2022-10-06T07:32:09.144Z,22.50
2022-10-06T07:34:36.157Z,23.00
2022-10-06T07:37:06.385Z,22.75
2022-10-06T07:39:34.585Z,23.00
2022-10-06T07:42:01.376Z,23.00
2022-10-06T07:44:30.321Z,22.00
2022-10-06T07:46:57.139Z,23.00
2022-10-06T07:49:37.548Z,22.00
2022-10-06T07:52:08.078Z,22.00
2022-10-06T07:54:35.111Z,22.00
2022-10-06T07:57:44.302Z,23.00
2022-10-06T08:00:12.704Z,23.25
2022-10-06T08:02:39.520Z,23.00
2022-10-06T08:05:08.715Z,22.50
2022-10-06T08:07:55.653Z,23.00
2022-10-06T08:10:22.657Z,22.00
2022-10-06T08:12:59.899Z,22.25
2022-10-06T08:15:28.774Z,22.00
2022-10-06T08:17:55.534Z,22.50
2022-10-06T08:20:22.375Z,22.00
2022-10-06T08:23:07.684Z,22.00
2022-10-06T08:25:35.442Z,22.50
2022-10-06T08:28:02.410Z,22.00
2022-10-06T08:30:29.737Z,22.00
2022-10-06T08:32:56.734Z,22.00
2022-10-06T08:36:11.365Z,22.50
2022-10-06T08:38:38.860Z,23.00
2022-10-06T08:41:24.342Z,23.00
2022-10-06T08:44:18.600Z,24.00
2022-10-06T08:46:55.435Z,23.50
2022-10-06T08:49:25.548Z,23.00
2022-10-06T08:52:18.916Z,22.00
2022-10-06T08:55:04.133Z,22.00
2022-10-06T08:57:36.601Z,22.00
2022-10-06T09:00:11.692Z,22.00
2022-10-06T09:02:44.626Z,22.00
2022-10-06T09:05:20.878Z,22.00
2022-10-06T09:08:09.337Z,23.00
2022-10-06T09:10:57.284Z,23.00
2022-10-06T09:13:32.632Z,23.00
2022-10-06T09:16:07.121Z,23.00
2022-10-06T09:19:08.379Z,22.75
2022-10-06T09:21:51.347Z,22.00
2022-10-06T09:24:43.568Z,22.00
2022-10-06T09:27:23.915Z,22.00
2022-10-06T09:29:51.506Z,22.00
2022-10-06T09:32:20.791Z,23.00
2022-10-06T09:34:54.195Z,22.00
2022-10-06T09:37:21.012Z,23.00
2022-10-06T09:39:50.768Z,22.00
2022-10-06T09:42:23.477Z,22.00
2022-10-06T09:44:50.334Z,21.75
2022-10-06T09:47:37.565Z,22.00
2022-10-06T09:50:24.106Z,22.00
2022-10-06T09:52:59.927Z,22.00
2022-10-06T09:55:38.056Z,22.75
2022-10-06T09:58:32.176Z,22.50
2022-10-06T10:01:00.575Z,22.50
2022-10-06T10:03:44.507Z,23.00
2022-10-06T10:06:32.915Z,23.00
2022-10-06T10:09:20.709Z,23.00
2022-10-06T10:12:19.391Z,22.25
2022-10-06T10:14:46.437Z,23.00
2022-10-06T10:17:24.543Z,23.00
2022-10-06T10:19:54.206Z,22.00
2022-10-06T10:22:33.862Z,22.50
2022-10-06T10:25:38.135Z,23.00
2022-10-06T10:28:13.918Z,24.00
2022-10-06T10:31:09.673Z,23.00
2022-10-06T10:34:05.062Z,23.00
2022-10-06T10:36:51.518Z,22.50
2022-10-06T10:39:43.629Z,23.00
2022-10-06T10:42:30.087Z,22.00
2022-10-06T10:45:13.304Z,22.00
2022-10-06T10:47:45.656Z,22.00
2022-10-06T10:50:51.642Z,22.00
2022-10-06T10:53:28.221Z,22.00
2022-10-06T10:55:55.536Z,22.00
2022-10-06T10:58:54.906Z,22.00
2022-10-06T11:01:57.841Z,22.00
2022-10-06T11:04:25.203Z,22.00
2022-10-06T11:07:10.719Z,21.00
2022-10-06T11:09:40.197Z,22.00
2022-10-06T11:12:12.765Z,23.00
2022-10-06T11:15:12.031Z,23.00
2022-10-06T11:17:43.571Z,23.75
2022-10-06T11:20:24.742Z,24.00
2022-10-06T11:23:08.715Z,22.00
2022-10-06T11:26:03.300Z,22.00
2022-10-06T11:29:11.132Z,22.00
2022-10-06T11:31:52.005Z,22.00
2022-10-06T11:34:18.960Z,21.50
2022-10-06T11:36:58.066Z,22.00
2022-10-06T11:39:50.477Z,22.00
2022-10-06T11:42:36.196Z,22.50
2022-10-06T11:45:13.731Z,23.00
2022-10-06T11:48:08.462Z,22.00
2022-10-06T11:50:43.284Z,23.00
2022-10-06T11:53:34.294Z,23.00
2022-10-06T11:56:16.544Z,22.00
2022-10-06T11:58:52.564Z,22.00
2022-10-06T12:01:31.682Z,23.50
2022-10-06T12:04:10.773Z,22.00
2022-10-06T12:06:43.740Z,22.00
2022-10-06T12:09:25.809Z,22.25
2022-10-06T12:12:26.220Z,22.00
2022-10-06T12:18:29.143Z,22.50
2022-10-06T12:21:07.973Z,22.75
2022-10-06T12:24:05.689Z,22.00
2022-10-06T12:27:26.067Z,22.00
2022-10-06T12:30:02.319Z,21.00
2022-10-06T12:32:42.839Z,21.50
2022-10-06T12:35:16.676Z,21.50
2022-10-06T12:37:53.756Z,23.00
2022-10-06T12:40:39.609Z,22.00
2022-10-06T12:43:12.766Z,22.00
2022-10-06T12:45:46.387Z,21.00
2022-10-06T12:49:06.833Z,22.50
2022-10-06T12:51:43.393Z,22.00
2022-10-06T12:54:21.179Z,22.00
2022-10-06T12:57:03.145Z,22.00
2022-10-06T12:59:34.814Z,22.00
2022-10-06T13:02:27.219Z,22.00
2022-10-06T13:05:11.627Z,22.00
2022-10-06T13:07:59.769Z,22.00
2022-10-06T13:10:27.953Z,22.00
2022-10-06T13:12:55.251Z,21.00
2022-10-06T13:15:25.066Z,21.50
2022-10-06T13:17:55.956Z,22.75
2022-10-06T13:20:48.568Z,22.00
2022-10-06T13:23:29.407Z,22.00
2022-10-06T13:26:08.278Z,21.00
2022-10-06T13:28:44.319Z,21.00
2022-10-06T13:31:27.002Z,22.00
2022-10-06T13:34:03.730Z,23.00
2022-10-06T13:36:34.510Z,23.25
2022-10-06T13:39:13.330Z,21.00
2022-10-06T13:41:51.012Z,22.00
2022-10-06T13:44:42.476Z,22.00
2022-10-06T13:47:18.642Z,23.50
2022-10-06T13:50:03.020Z,23.00
2022-10-06T13:52:33.862Z,22.00
2022-10-06T13:55:02.618Z,21.00
2022-10-06T13:57:59.011Z,23.50
2022-10-06T14:00:34.186Z,22.00
2022-10-06T14:03:07.264Z,22.00
2022-10-06T14:05:36.983Z,24.00
2022-10-06T14:08:25.059Z,24.00
2022-10-06T14:11:07.373Z,24.00
2022-10-06T14:14:07.913Z,24.00
2022-10-06T14:16:43.551Z,24.00
2022-10-06T14:19:41.156Z,24.00
2022-10-06T14:22:33.045Z,24.00
2022-10-06T14:25:00.332Z,24.00
2022-10-06T14:27:33.329Z,25.75
2022-10-06T14:30:03.629Z,25.00
2022-10-06T14:35:17.762Z,25.00
2022-10-06T14:37:45.992Z,26.00
2022-10-06T14:40:12.871Z,26.00
2022-10-06T14:42:39.898Z,25.00
2022-10-06T14:45:27.178Z,24.00
2022-10-06T14:47:54.172Z,24.00
2022-10-06T14:50:21.036Z,23.50
2022-10-06T14:52:49.714Z,23.00
2022-10-06T14:55:20.913Z,22.00
2022-10-06T14:58:01.827Z,23.75
2022-10-06T15:00:34.565Z,23.00
2022-10-06T15:03:05.774Z,23.00
2022-10-06T15:05:32.779Z,24.00
2022-10-06T15:08:00.097Z,23.00
2022-10-06T15:10:27.213Z,23.00
2022-10-06T15:12:54.238Z,23.00
2022-10-06T15:15:21.345Z,22.00
2022-10-06T15:17:48.160Z,22.00
2022-10-06T15:20:15.300Z,22.50
2022-10-06T15:22:42.259Z,22.00
2022-10-06T15:25:10.235Z,22.00
2022-10-06T15:28:16.639Z,22.00
2022-10-06T15:30:45.809Z,22.00
2022-10-06T15:33:17.992Z,23.00
2022-10-06T15:36:03.671Z,23.00
2022-10-06T15:38:36.041Z,23.00
2022-10-06T15:41:03.731Z,24.00
2022-10-06T15:43:32.281Z,23.00
2022-10-06T15:46:02.448Z,23.00
2022-10-06T15:48:29.390Z,23.00
2022-10-06T15:50:56.201Z,23.00
2022-10-06T15:53:23.149Z,24.00
2022-10-06T15:55:49.924Z,22.75
2022-10-06T15:58:25.745Z,23.00
2022-10-06T16:00:52.741Z,22.50
2022-10-06T16:03:26.761Z,23.00
2022-10-06T16:05:57.297Z,23.00
2022-10-06T16:08:53.157Z,23.00
2022-10-06T16:11:20.467Z,23.00
2022-10-06T16:14:10.546Z,22.00
2022-10-06T16:16:42.630Z,23.00
2022-10-06T16:19:30.463Z,22.00
2022-10-06T16:21:59.205Z,23.00
2022-10-06T16:24:27.437Z,23.00
2022-10-06T16:26:54.841Z,22.00
2022-10-06T16:29:22.111Z,22.00
2022-10-06T16:31:49.389Z,23.00
2022-10-06T16:34:16.697Z,22.00
2022-10-06T16:36:43.812Z,23.00
2022-10-06T16:39:19.333Z,24.00
2022-10-06T16:41:46.633Z,24.00
2022-10-06T16:44:13.520Z,22.50
2022-10-06T16:46:40.901Z,22.00
2022-10-06T16:49:08.739Z,21.00
2022-10-06T16:51:43.315Z,23.00
2022-10-06T16:54:12.742Z,23.00
2022-10-06T16:56:45.158Z,23.00
2022-10-06T16:59:15.461Z,23.25
2022-10-06T17:01:43.483Z,23.00
2022-10-06T17:04:17.902Z,23.00
2022-10-06T17:06:54.940Z,22.00
2022-10-06T17:09:37.288Z,23.00
2022-10-06T17:12:04.767Z,23.00
2022-10-06T17:14:34.318Z,22.50
2022-10-06T17:17:01.636Z,22.00
2022-10-06T17:19:35.066Z,23.00
2022-10-06T17:22:02.013Z,21.00
2022-10-06T17:24:29.421Z,22.25
2022-10-06T17:26:57.713Z,23.00
2022-10-06T17:29:54.034Z,22.50
2022-10-06T17:32:21.599Z,21.75
2022-10-06T17:35:00.708Z,22.75
2022-10-06T17:37:30.023Z,23.00
2022-10-06T17:39:56.872Z,22.00
2022-10-06T17:42:23.844Z,23.00
2022-10-06T17:44:50.729Z,23.00
2022-10-06T17:47:17.964Z,23.00
2022-10-06T17:49:44.898Z,22.00
2022-10-06T17:52:11.816Z,22.50
2022-10-06T17:54:43.009Z,22.50
2022-10-06T17:57:21.837Z,21.00
2022-10-06T17:59:48.853Z,21.00
2022-10-06T18:02:18.655Z,22.00
2022-10-06T18:04:45.700Z,21.00
2022-10-06T18:07:35.638Z,22.25
2022-10-06T18:10:02.559Z,22.00
2022-10-06T18:12:32.504Z,22.00
2022-10-06T18:14:59.484Z,21.00
2022-10-06T18:17:27.625Z,22.00
2022-10-06T18:19:54.537Z,21.00
2022-10-06T18:22:21.409Z,22.00
2022-10-06T18:24:48.324Z,22.00
2022-10-06T18:27:15.311Z,22.00
2022-10-06T18:29:42.525Z,22.25
2022-10-06T18:33:31.046Z,23.00
2022-10-06T18:37:43.426Z,21.00
2022-10-06T18:40:11.208Z,20.00
2022-10-06T18:42:57.186Z,21.00
2022-10-06T18:45:38.417Z,20.00
2022-10-06T18:48:06.268Z,21.00
2022-10-06T18:50:33.259Z,19.50
2022-10-06T18:53:19.754Z,20.50
2022-10-06T18:55:46.731Z,22.00
2022-10-06T18:58:13.639Z,21.75
2022-10-06T19:00:40.481Z,21.00
2022-10-06T19:03:07.382Z,22.00
2022-10-06T19:05:50.581Z,21.00
2022-10-06T19:08:17.473Z,20.25
2022-10-06T19:10:44.261Z,22.00
2022-10-06T19:13:11.148Z,21.50
2022-10-06T19:15:37.992Z,22.00
2022-10-06T19:18:05.013Z,21.50
2022-10-06T19:20:31.821Z,20.00
2022-10-06T19:22:58.766Z,19.00
2022-10-06T19:25:25.614Z,20.00
2022-10-06T19:27:52.624Z,21.00
2022-10-06T19:30:19.577Z,20.00
2022-10-06T19:32:46.385Z,19.00
2022-10-06T19:35:13.266Z,22.00
2022-10-06T19:37:40.340Z,20.00
2022-10-06T19:40:07.459Z,21.00
2022-10-06T19:42:34.346Z,22.00
2022-10-06T19:45:01.307Z,20.00
2022-10-06T19:47:28.703Z,19.75
2022-10-06T19:49:58.917Z,20.00
2022-10-06T19:52:27.883Z,20.00
2022-10-06T19:54:54.687Z,20.50
2022-10-06T19:57:23.004Z,19.00
2022-10-06T19:59:50.409Z,19.00
2022-10-06T20:02:27.517Z,22.00
2022-10-06T20:04:54.457Z,22.00
2022-10-06T20:07:42.051Z,22.00
2022-10-06T20:10:10.367Z,22.00
2022-10-06T20:12:37.941Z,22.00
2022-10-06T20:15:06.407Z,21.00
2022-10-06T20:17:33.378Z,21.00
2022-10-06T20:20:00.717Z,19.00
2022-10-06T20:22:27.904Z,19.00
2022-10-06T20:24:54.772Z,19.00
2022-10-06T20:27:21.629Z,20.00
2022-10-06T20:29:48.559Z,20.00
2022-10-06T20:32:15.357Z,22.00
2022-10-06T20:34:42.172Z,21.00
2022-10-06T20:37:09.044Z,19.00
2022-10-06T20:39:35.965Z,19.00
2022-10-06T20:42:03.772Z,22.00
2022-10-06T20:44:30.674Z,19.00
2022-10-06T20:46:57.591Z,19.00
2022-10-06T20:49:24.651Z,21.00
2022-10-06T20:51:51.696Z,22.00
2022-10-06T20:54:20.429Z,19.00
2022-10-06T20:56:52.108Z,20.00
2022-10-06T20:59:20.864Z,21.00
2022-10-06T21:01:47.968Z,21.00
2022-10-06T21:04:14.933Z,19.00
2022-10-06T21:06:42.075Z,18.00
2022-10-06T21:09:13.558Z,19.00
2022-10-06T21:11:40.581Z,18.00
2022-10-06T21:14:07.475Z,20.00
2022-10-06T21:17:00.538Z,21.00
2022-10-06T21:19:27.424Z,19.00
2022-10-06T21:21:54.195Z,19.00
2022-10-06T21:24:21.376Z,20.75
2022-10-06T21:26:49.020Z,21.00
2022-10-06T21:29:16.118Z,21.00
2022-10-06T21:31:44.689Z,19.00
2022-10-06T21:34:12.380Z,18.75
2022-10-06T21:36:39.165Z,18.00
2022-10-06T21:39:06.719Z,19.00
2022-10-06T21:41:36.033Z,20.00
2022-10-06T21:44:05.847Z,19.00
2022-10-06T21:46:52.915Z,19.00
2022-10-06T21:49:24.898Z,19.00
2022-10-06T21:51:55.612Z,21.00
2022-10-06T21:54:23.531Z,21.00
2022-10-06T21:56:50.908Z,21.00
2022-10-06T21:59:18.584Z,21.00
2022-10-06T22:01:46.625Z,19.00
2022-10-06T22:04:14.495Z,21.00
2022-10-06T22:06:43.079Z,19.00
2022-10-06T22:09:15.137Z,20.00
2022-10-06T22:12:04.250Z,21.00
2022-10-06T22:14:31.170Z,21.00
2022-10-06T22:16:57.932Z,20.00
2022-10-06T22:19:24.805Z,20.75
2022-10-06T22:21:51.795Z,20.00
2022-10-06T22:24:23.139Z,21.00
2022-10-06T22:26:50.112Z,22.25
2022-10-06T22:29:35.184Z,22.00
2022-10-06T22:32:02.093Z,20.00
2022-10-06T22:34:28.929Z,21.00
2022-10-06T22:36:59.039Z,20.00
2022-10-06T22:39:25.938Z,21.00
2022-10-06T22:41:52.824Z,21.00
2022-10-06T22:44:19.611Z,19.25
2022-10-06T22:46:46.521Z,19.50
2022-10-06T22:49:13.383Z,19.00
2022-10-06T22:51:40.254Z,20.00
2022-10-06T22:54:07.178Z,21.00
2022-10-06T22:56:34.705Z,22.00
2022-10-06T22:59:01.551Z,21.00
2022-10-06T23:01:29.593Z,21.25
2022-10-06T23:03:57.483Z,21.50
2022-10-06T23:06:25.034Z,22.25
2022-10-06T23:08:52.291Z,19.50
2022-10-06T23:11:20.499Z,19.00
2022-10-06T23:13:47.343Z,20.50
2022-10-06T23:16:16.247Z,20.00
2022-10-06T23:18:44.278Z,21.00
2022-10-06T23:21:20.461Z,21.50
2022-10-06T23:23:49.623Z,21.00
2022-10-06T23:26:17.466Z,20.00
2022-10-06T23:28:44.767Z,21.00
2022-10-06T23:31:12.544Z,19.00
2022-10-06T23:33:39.852Z,19.00
2022-10-06T23:36:09.667Z,19.00
2022-10-06T23:38:37.975Z,19.00
2022-10-06T23:41:06.290Z,20.00
2022-10-06T23:43:33.282Z,21.00
2022-10-06T23:46:00.228Z,19.00
2022-10-06T23:48:27.089Z,21.00
2022-10-06T23:51:02.006Z,21.50
2022-10-06T23:53:30.743Z,19.00
2022-10-06T23:55:57.951Z,21.00
2022-10-06T23:58:26.048Z,20.00
